No particular awareness of the weather is required.    There are no Weather-warnings




My webcam more information My webcam


Meteosat more information Meteosat


Radar de pluja more information rain snow radar


Visita la nostra xarxa de llocs de meteo:

Template documentation
and downloads

And another site



Select another period ( hide this area )

Unitats Periode Custom range Directly to
Mètric Imperial Tant
Diari Setmana Mensual Anual
use both date-selectors for a custom range
previous Dia
With this date

WeatherUnderground graphs for this period ( click here )


Warning: Division by zero in /var/www/vhosts/5/103384/webspace/httpdocs/santgenismeteo.org/weather28/wu/WU-History4.php on line 835
Diari Resum Dijous 20 February 2020
Temps Temp. ( °C ) Dew pt. ( °C ) Vent ( km/h ) des Rafegues ( km/h ) Pression baro ( hPa ) Humid.( % ) Rainrate ( cm ) Solar ( W/m2 )
Maxima9,3 3,1 8,7 Est ( 63/124 ) 8,7 1026,3 66 - 0
Media8,8 2,4 4,0 Est #12/31 4,9 1025,2 64 - 0 #0/31
Minima8,1 1,7 -   0,0 1024,3 60 -  
Diari Tabular details for Dijous 20 February 2020
Temps Temp. ( °C ) Dew pt. ( °C ) Vent ( km/h ) des Rafegues ( km/h ) Pression baro ( hPa ) Humid.( % ) Rainrate ( cm ) Solar ( W/m2 )
00:00 9,3 1,9 4,3 West 4,3 1025,3 60 - -
00:05 9,3 1,9 2,6 Est 2,6 1025,3 60 - -
00:10 9,3 2,2 2,1 SSW 4,7 1025,3 61 - -
00:15 9,2 2,1 8,7 Est 8,7 1025,3 61 - -
00:20 9,2 2,3 2,6 NNW 4,3 1025,3 62 - -
00:25 9,2 2,5 4,0 ENE 4,0 1025,3 63 - -
00:30 9,2 2,7 5,5 WNW 5,5 1025,3 64 - -
00:35 9,2 2,7 2,6 WNW 3,2 1024,3 64 - -
00:40 9,2 2,7 4,7 Est 4,7 1024,3 64 - -
00:45 9,2 2,7 1,4 ENE 3,2 1024,3 64 - -
00:50 9,1 2,6 1,4 ENE 1,4 1024,3 64 - -
00:55 9,1 2,6 5,8 ENE 5,8 1024,3 64 - -
01:00 9,1 2,9 5,8 ENE 5,8 1024,3 65 - -
01:05 9,1 3,1 5,8 ENE 5,8 1025,3 66 - -
01:10 9,1 3,1 4,7 Est 8,7 1025,3 66 - -
01:15 9,0 2,8 2,6 Est 5,8 1025,3 65 - -
01:20 9,0 2,8 2,1 WNW 2,1 1026,3 65 - -
01:25 8,9 2,9 5,8 Est 5,8 1026,3 66 - -
01:30 8,9 2,9 5,8 Est 5,8 1026,3 66 - -
01:35 8,8 2,6 5,8 Est 5,8 1025,3 65 - -
01:40 8,7 2,5 7,2 Est 7,2 1025,3 65 - -
01:45 8,6 2,2 7,2 Est 7,2 1025,3 64 - -
01:50 8,5 2,1 2,6 Est 2,6 1025,3 64 - -
01:55 8,4 2,0   calma 5,0 1025,3 64 - -
02:00 8,4 2,0   calma   1025,3 64 - -
02:05 8,3 1,9   calma 7,9 1025,3 64 - -
02:10 8,2 1,8 4,0 NE 4,0 1025,3 64 - -
02:15 8,2 1,8 5,0 ENE 5,0 1025,3 64 - -
02:20 8,2 1,8 5,5 Est 5,5 1025,3 64 - -
02:25 8,1 1,7 3,2 WSW 3,2 1025,3 64 - -
02:30 8,1 1,7 4,7 ENE 6,1 1025,3 64 - -
Diari Resum Dijous 20 February 2020
Temps Temp. ( °C ) Dew pt. ( °C ) Vent ( km/h ) des Rafegues ( km/h ) Pression baro ( hPa ) Humid.( % ) Rainrate ( cm ) Solar ( W/m2 )
Maxima9,3 3,1 8,7 Est ( 63/124 ) 8,7 1026,3 66 - 0
Media8,8 2,4 4,0 Est #12/31 4,9 1025,2 64 - 0 #0/31
Minima8,1 1,7 -   0,0 1024,3 60 -  
Diari Tabular details for Dijous 20 February 2020
Temps Temp. ( °C ) Dew pt. ( °C ) Vent ( km/h ) des Rafegues ( km/h ) Pression baro ( hPa ) Humid.( % ) Rainrate ( cm ) Solar ( W/m2 )
00:00 9,3 1,9 4,3 West 4,3 1025,3 60 - -
00:05 9,3 1,9 2,6 Est 2,6 1025,3 60 - -
00:10 9,3 2,2 2,1 SSW 4,7 1025,3 61 - -
00:15 9,2 2,1 8,7 Est 8,7 1025,3 61 - -
00:20 9,2 2,3 2,6 NNW 4,3 1025,3 62 - -
00:25 9,2 2,5 4,0 ENE 4,0 1025,3 63 - -
00:30 9,2 2,7 5,5 WNW 5,5 1025,3 64 - -
00:35 9,2 2,7 2,6 WNW 3,2 1024,3 64 - -
00:40 9,2 2,7 4,7 Est 4,7 1024,3 64 - -
00:45 9,2 2,7 1,4 ENE 3,2 1024,3 64 - -
00:50 9,1 2,6 1,4 ENE 1,4 1024,3 64 - -
00:55 9,1 2,6 5,8 ENE 5,8 1024,3 64 - -
01:00 9,1 2,9 5,8 ENE 5,8 1024,3 65 - -
01:05 9,1 3,1 5,8 ENE 5,8 1025,3 66 - -
01:10 9,1 3,1 4,7 Est 8,7 1025,3 66 - -
01:15 9,0 2,8 2,6 Est 5,8 1025,3 65 - -
01:20 9,0 2,8 2,1 WNW 2,1 1026,3 65 - -
01:25 8,9 2,9 5,8 Est 5,8 1026,3 66 - -
01:30 8,9 2,9 5,8 Est 5,8 1026,3 66 - -
01:35 8,8 2,6 5,8 Est 5,8 1025,3 65 - -
01:40 8,7 2,5 7,2 Est 7,2 1025,3 65 - -
01:45 8,6 2,2 7,2 Est 7,2 1025,3 64 - -
01:50 8,5 2,1 2,6 Est 2,6 1025,3 64 - -
01:55 8,4 2,0   calma 5,0 1025,3 64 - -
02:00 8,4 2,0   calma   1025,3 64 - -
02:05 8,3 1,9   calma 7,9 1025,3 64 - -
02:10 8,2 1,8 4,0 NE 4,0 1025,3 64 - -
02:15 8,2 1,8 5,0 ENE 5,0 1025,3 64 - -
02:20 8,2 1,8 5,5 Est 5,5 1025,3 64 - -
02:25 8,1 1,7 3,2 WSW 3,2 1025,3 64 - -
02:30 8,1 1,7 4,7 ENE 6,1 1025,3 64 - -

Download your copy of this data-set  here

Our weather-data as stored at Weather Underground. Guio original per Jim McMurry. Adaptat per a la plantilla per Leuven-Template.eu

Trobareu la nostra informacio del temps tambe a:

European Weather Network

WeatherCloud

Weather Underground

Meteoclimatic

Equip utilitzat:

Weather-program
Weather Display

Weather-server
RaspberryPI 2

Proveidor

Weather Display

RaspberryPI 2